sensor_id;sensor_type;location;lat;lon;timestamp;pressure;altitude;pressure_sealevel;temperature
20289;BMP180;10303;51.960;8.372;2023-09-30T00:01:27;101368.00;;;17.40
20289;BMP180;10303;51.960;8.372;2023-09-30T00:03:53;101367.00;;;17.40
20289;BMP180;10303;51.960;8.372;2023-09-30T00:06:19;101375.00;;;17.40
20289;BMP180;10303;51.960;8.372;2023-09-30T00:08:45;101373.00;;;17.40
20289;BMP180;10303;51.960;8.372;2023-09-30T00:11:11;101369.00;;;17.30
20289;BMP180;10303;51.960;8.372;2023-09-30T00:13:37;101369.00;;;17.30
20289;BMP180;10303;51.960;8.372;2023-09-30T00:16:04;101368.00;;;17.30
20289;BMP180;10303;51.960;8.372;2023-09-30T00:18:30;101375.00;;;17.20
20289;BMP180;10303;51.960;8.372;2023-09-30T00:20:56;101374.00;;;17.20
20289;BMP180;10303;51.960;8.372;2023-09-30T00:23:23;101371.00;;;17.10
20289;BMP180;10303;51.960;8.372;2023-09-30T00:25:49;101376.00;;;17.10
20289;BMP180;10303;51.960;8.372;2023-09-30T00:28:16;101379.00;;;17.10
20289;BMP180;10303;51.960;8.372;2023-09-30T00:30:41;101385.00;;;17.00
20289;BMP180;10303;51.960;8.372;2023-09-30T00:33:09;101381.00;;;17.00
20289;BMP180;10303;51.960;8.372;2023-09-30T00:35:35;101393.00;;;16.90
20289;BMP180;10303;51.960;8.372;2023-09-30T00:38:01;101386.00;;;16.90
20289;BMP180;10303;51.960;8.372;2023-09-30T00:40:26;101384.00;;;16.90
20289;BMP180;10303;51.960;8.372;2023-09-30T00:42:52;101397.00;;;16.80
20289;BMP180;10303;51.960;8.372;2023-09-30T00:45:18;101397.00;;;16.80
20289;BMP180;10303;51.960;8.372;2023-09-30T00:47:45;101406.00;;;16.80
20289;BMP180;10303;51.960;8.372;2023-09-30T00:50:11;101405.00;;;16.70
20289;BMP180;10303;51.960;8.372;2023-09-30T00:52:38;101397.00;;;16.70
20289;BMP180;10303;51.960;8.372;2023-09-30T00:55:06;101403.00;;;16.60
20289;BMP180;10303;51.960;8.372;2023-09-30T00:57:33;101404.00;;;16.60
20289;BMP180;10303;51.960;8.372;2023-09-30T01:00:00;101406.00;;;16.50
20289;BMP180;10303;51.960;8.372;2023-09-30T01:02:26;101405.00;;;16.50
20289;BMP180;10303;51.960;8.372;2023-09-30T01:04:55;101401.00;;;16.50
20289;BMP180;10303;51.960;8.372;2023-09-30T01:07:21;101387.00;;;16.40
20289;BMP180;10303;51.960;8.372;2023-09-30T01:09:48;101394.00;;;16.40
20289;BMP180;10303;51.960;8.372;2023-09-30T01:12:14;101401.00;;;16.40
20289;BMP180;10303;51.960;8.372;2023-09-30T01:14:40;101409.00;;;16.40
20289;BMP180;10303;51.960;8.372;2023-09-30T01:17:08;101391.00;;;16.40
20289;BMP180;10303;51.960;8.372;2023-09-30T01:19:35;101394.00;;;16.40
20289;BMP180;10303;51.960;8.372;2023-09-30T01:22:01;101389.00;;;16.30
20289;BMP180;10303;51.960;8.372;2023-09-30T01:24:42;101387.00;;;16.30
20289;BMP180;10303;51.960;8.372;2023-09-30T01:27:11;101384.00;;;16.30
20289;BMP180;10303;51.960;8.372;2023-09-30T01:29:38;101378.00;;;16.30
20289;BMP180;10303;51.960;8.372;2023-09-30T01:32:05;101391.00;;;16.30
20289;BMP180;10303;51.960;8.372;2023-09-30T01:34:36;101395.00;;;16.30
20289;BMP180;10303;51.960;8.372;2023-09-30T01:37:02;101395.00;;;16.30
20289;BMP180;10303;51.960;8.372;2023-09-30T01:39:28;101393.00;;;16.20
20289;BMP180;10303;51.960;8.372;2023-09-30T01:41:55;101376.00;;;16.20
20289;BMP180;10303;51.960;8.372;2023-09-30T01:44:21;101396.00;;;16.20
20289;BMP180;10303;51.960;8.372;2023-09-30T01:46:47;101390.00;;;16.20
20289;BMP180;10303;51.960;8.372;2023-09-30T01:49:13;101394.00;;;16.20
20289;BMP180;10303;51.960;8.372;2023-09-30T01:51:39;101403.00;;;16.20
20289;BMP180;10303;51.960;8.372;2023-09-30T01:54:05;101397.00;;;16.10
20289;BMP180;10303;51.960;8.372;2023-09-30T01:56:31;101395.00;;;16.10
20289;BMP180;10303;51.960;8.372;2023-09-30T01:58:59;101376.00;;;16.10
20289;BMP180;10303;51.960;8.372;2023-09-30T02:01:25;101377.00;;;16.10
20289;BMP180;10303;51.960;8.372;2023-09-30T02:03:51;101383.00;;;16.00
20289;BMP180;10303;51.960;8.372;2023-09-30T02:06:17;101394.00;;;16.00
20289;BMP180;10303;51.960;8.372;2023-09-30T02:08:44;101393.00;;;16.00
20289;BMP180;10303;51.960;8.372;2023-09-30T02:11:11;101412.00;;;16.00
20289;BMP180;10303;51.960;8.372;2023-09-30T02:13:41;101412.00;;;16.00
20289;BMP180;10303;51.960;8.372;2023-09-30T02:16:12;101414.00;;;15.90
20289;BMP180;10303;51.960;8.372;2023-09-30T02:18:40;101415.00;;;15.90
20289;BMP180;10303;51.960;8.372;2023-09-30T02:21:08;101416.00;;;15.90
20289;BMP180;10303;51.960;8.372;2023-09-30T02:23:35;101415.00;;;15.90
20289;BMP180;10303;51.960;8.372;2023-09-30T02:26:03;101409.00;;;15.90
20289;BMP180;10303;51.960;8.372;2023-09-30T02:28:29;101416.00;;;15.90
20289;BMP180;10303;51.960;8.372;2023-09-30T02:30:59;101413.00;;;15.80
20289;BMP180;10303;51.960;8.372;2023-09-30T02:33:26;101412.00;;;15.80
20289;BMP180;10303;51.960;8.372;2023-09-30T02:35:52;101417.00;;;15.80
20289;BMP180;10303;51.960;8.372;2023-09-30T02:38:18;101406.00;;;15.80
20289;BMP180;10303;51.960;8.372;2023-09-30T02:40:48;101418.00;;;15.80
20289;BMP180;10303;51.960;8.372;2023-09-30T02:43:14;101426.00;;;15.70
20289;BMP180;10303;51.960;8.372;2023-09-30T02:45:40;101422.00;;;15.70
20289;BMP180;10303;51.960;8.372;2023-09-30T02:48:06;101429.00;;;15.70
20289;BMP180;10303;51.960;8.372;2023-09-30T02:50:32;101425.00;;;15.70
20289;BMP180;10303;51.960;8.372;2023-09-30T02:52:59;101428.00;;;15.70
20289;BMP180;10303;51.960;8.372;2023-09-30T02:55:25;101431.00;;;15.60
20289;BMP180;10303;51.960;8.372;2023-09-30T02:57:51;101427.00;;;15.60
20289;BMP180;10303;51.960;8.372;2023-09-30T03:00:18;101435.00;;;15.60
20289;BMP180;10303;51.960;8.372;2023-09-30T03:02:53;101429.00;;;15.60
20289;BMP180;10303;51.960;8.372;2023-09-30T03:05:20;101425.00;;;15.50
20289;BMP180;10303;51.960;8.372;2023-09-30T03:07:47;101416.00;;;15.50
20289;BMP180;10303;51.960;8.372;2023-09-30T03:10:13;101414.00;;;15.50
20289;BMP180;10303;51.960;8.372;2023-09-30T03:13:01;101408.00;;;15.50
20289;BMP180;10303;51.960;8.372;2023-09-30T03:15:28;101408.00;;;15.50
20289;BMP180;10303;51.960;8.372;2023-09-30T03:17:57;101394.00;;;15.40
20289;BMP180;10303;51.960;8.372;2023-09-30T03:20:23;101405.00;;;15.40
20289;BMP180;10303;51.960;8.372;2023-09-30T03:22:51;101412.00;;;15.40
20289;BMP180;10303;51.960;8.372;2023-09-30T03:25:19;101408.00;;;15.40
20289;BMP180;10303;51.960;8.372;2023-09-30T03:27:47;101418.00;;;15.40
20289;BMP180;10303;51.960;8.372;2023-09-30T03:30:17;101423.00;;;15.30
20289;BMP180;10303;51.960;8.372;2023-09-30T03:32:45;101433.00;;;15.30
20289;BMP180;10303;51.960;8.372;2023-09-30T03:35:12;101430.00;;;15.30
20289;BMP180;10303;51.960;8.372;2023-09-30T03:37:45;101434.00;;;15.20
20289;BMP180;10303;51.960;8.372;2023-09-30T03:40:13;101429.00;;;15.20
20289;BMP180;10303;51.960;8.372;2023-09-30T03:42:53;101437.00;;;15.20
20289;BMP180;10303;51.960;8.372;2023-09-30T03:45:20;101434.00;;;15.20
20289;BMP180;10303;51.960;8.372;2023-09-30T03:47:46;101418.00;;;15.10
20289;BMP180;10303;51.960;8.372;2023-09-30T03:50:13;101410.00;;;15.10
20289;BMP180;10303;51.960;8.372;2023-09-30T03:52:43;101420.00;;;15.10
20289;BMP180;10303;51.960;8.372;2023-09-30T03:55:13;101403.00;;;15.00
20289;BMP180;10303;51.960;8.372;2023-09-30T03:57:42;101414.00;;;15.00
20289;BMP180;10303;51.960;8.372;2023-09-30T04:00:09;101420.00;;;15.00
20289;BMP180;10303;51.960;8.372;2023-09-30T04:02:39;101411.00;;;15.00
20289;BMP180;10303;51.960;8.372;2023-09-30T04:05:08;101406.00;;;14.90
20289;BMP180;10303;51.960;8.372;2023-09-30T04:07:37;101405.00;;;14.90
20289;BMP180;10303;51.960;8.372;2023-09-30T04:10:03;101412.00;;;14.90
20289;BMP180;10303;51.960;8.372;2023-09-30T04:12:30;101418.00;;;14.90
20289;BMP180;10303;51.960;8.372;2023-09-30T04:14:58;101416.00;;;14.80
20289;BMP180;10303;51.960;8.372;2023-09-30T04:17:24;101416.00;;;14.80
20289;BMP180;10303;51.960;8.372;2023-09-30T04:19:53;101418.00;;;14.80
20289;BMP180;10303;51.960;8.372;2023-09-30T04:22:19;101410.00;;;14.80
20289;BMP180;10303;51.960;8.372;2023-09-30T04:24:47;101425.00;;;14.70
20289;BMP180;10303;51.960;8.372;2023-09-30T04:27:16;101416.00;;;14.70
20289;BMP180;10303;51.960;8.372;2023-09-30T04:29:43;101437.00;;;14.70
20289;BMP180;10303;51.960;8.372;2023-09-30T04:32:09;101427.00;;;14.60
20289;BMP180;10303;51.960;8.372;2023-09-30T04:34:35;101418.00;;;14.60
20289;BMP180;10303;51.960;8.372;2023-09-30T04:37:01;101417.00;;;14.60
20289;BMP180;10303;51.960;8.372;2023-09-30T04:39:27;101421.00;;;14.60
20289;BMP180;10303;51.960;8.372;2023-09-30T04:41:53;101426.00;;;14.60
20289;BMP180;10303;51.960;8.372;2023-09-30T04:44:20;101424.00;;;14.50
20289;BMP180;10303;51.960;8.372;2023-09-30T04:46:47;101424.00;;;14.50
20289;BMP180;10303;51.960;8.372;2023-09-30T04:49:14;101432.00;;;14.50
20289;BMP180;10303;51.960;8.372;2023-09-30T04:51:41;101447.00;;;14.50
20289;BMP180;10303;51.960;8.372;2023-09-30T04:54:07;101447.00;;;14.50
20289;BMP180;10303;51.960;8.372;2023-09-30T04:56:37;101439.00;;;14.40
20289;BMP180;10303;51.960;8.372;2023-09-30T04:59:04;101438.00;;;14.40
20289;BMP180;10303;51.960;8.372;2023-09-30T05:01:30;101433.00;;;14.40
20289;BMP180;10303;51.960;8.372;2023-09-30T05:03:56;101419.00;;;14.40
20289;BMP180;10303;51.960;8.372;2023-09-30T05:06:23;101429.00;;;14.40
20289;BMP180;10303;51.960;8.372;2023-09-30T05:08:49;101435.00;;;14.40
20289;BMP180;10303;51.960;8.372;2023-09-30T05:11:15;101442.00;;;14.30
20289;BMP180;10303;51.960;8.372;2023-09-30T05:13:41;101448.00;;;14.30
20289;BMP180;10303;51.960;8.372;2023-09-30T05:16:07;101456.00;;;14.30
20289;BMP180;10303;51.960;8.372;2023-09-30T05:18:35;101443.00;;;14.30
20289;BMP180;10303;51.960;8.372;2023-09-30T05:21:01;101447.00;;;14.30
20289;BMP180;10303;51.960;8.372;2023-09-30T05:23:27;101453.00;;;14.30
20289;BMP180;10303;51.960;8.372;2023-09-30T05:25:53;101459.00;;;14.30
20289;BMP180;10303;51.960;8.372;2023-09-30T05:28:22;101453.00;;;14.20
20289;BMP180;10303;51.960;8.372;2023-09-30T05:30:48;101445.00;;;14.20
20289;BMP180;10303;51.960;8.372;2023-09-30T05:33:16;101455.00;;;14.20
20289;BMP180;10303;51.960;8.372;2023-09-30T05:35:42;101458.00;;;14.20
20289;BMP180;10303;51.960;8.372;2023-09-30T05:38:08;101450.00;;;14.20
20289;BMP180;10303;51.960;8.372;2023-09-30T05:40:36;101443.00;;;14.30
20289;BMP180;10303;51.960;8.372;2023-09-30T05:43:02;101452.00;;;14.30
20289;BMP180;10303;51.960;8.372;2023-09-30T05:45:32;101455.00;;;14.20
20289;BMP180;10303;51.960;8.372;2023-09-30T05:48:04;101453.00;;;14.30
20289;BMP180;10303;51.960;8.372;2023-09-30T05:50:35;101455.00;;;14.30
20289;BMP180;10303;51.960;8.372;2023-09-30T05:53:02;101469.00;;;14.30
20289;BMP180;10303;51.960;8.372;2023-09-30T05:55:30;101484.00;;;14.30
20289;BMP180;10303;51.960;8.372;2023-09-30T05:57:56;101484.00;;;14.30
20289;BMP180;10303;51.960;8.372;2023-09-30T06:00:22;101481.00;;;14.30
20289;BMP180;10303;51.960;8.372;2023-09-30T06:02:57;101489.00;;;14.30
20289;BMP180;10303;51.960;8.372;2023-09-30T06:05:23;101490.00;;;14.30
20289;BMP180;10303;51.960;8.372;2023-09-30T06:07:51;101490.00;;;14.30
20289;BMP180;10303;51.960;8.372;2023-09-30T06:10:17;101482.00;;;14.30
20289;BMP180;10303;51.960;8.372;2023-09-30T06:12:51;101498.00;;;14.30
20289;BMP180;10303;51.960;8.372;2023-09-30T06:15:25;101504.00;;;14.30
20289;BMP180;10303;51.960;8.372;2023-09-30T06:17:56;101516.00;;;14.40
20289;BMP180;10303;51.960;8.372;2023-09-30T06:20:22;101500.00;;;14.30
20289;BMP180;10303;51.960;8.372;2023-09-30T06:22:52;101500.00;;;14.30
20289;BMP180;10303;51.960;8.372;2023-09-30T06:25:21;101497.00;;;14.40
20289;BMP180;10303;51.960;8.372;2023-09-30T06:27:49;101503.00;;;14.40
20289;BMP180;10303;51.960;8.372;2023-09-30T06:30:17;101503.00;;;14.30
20289;BMP180;10303;51.960;8.372;2023-09-30T06:32:44;101512.00;;;14.40
20289;BMP180;10303;51.960;8.372;2023-09-30T06:35:11;101514.00;;;14.40
20289;BMP180;10303;51.960;8.372;2023-09-30T06:37:38;101511.00;;;14.40
20289;BMP180;10303;51.960;8.372;2023-09-30T06:40:10;101510.00;;;14.40
20289;BMP180;10303;51.960;8.372;2023-09-30T06:42:40;101513.00;;;14.40
20289;BMP180;10303;51.960;8.372;2023-09-30T06:45:07;101510.00;;;14.50
20289;BMP180;10303;51.960;8.372;2023-09-30T06:47:37;101511.00;;;14.50
20289;BMP180;10303;51.960;8.372;2023-09-30T06:50:11;101518.00;;;14.50
20289;BMP180;10303;51.960;8.372;2023-09-30T06:52:43;101517.00;;;14.50
20289;BMP180;10303;51.960;8.372;2023-09-30T06:55:11;101524.00;;;14.60
20289;BMP180;10303;51.960;8.372;2023-09-30T06:57:41;101528.00;;;14.60
20289;BMP180;10303;51.960;8.372;2023-09-30T07:00:12;101523.00;;;14.60
20289;BMP180;10303;51.960;8.372;2023-09-30T07:02:40;101523.00;;;14.70
20289;BMP180;10303;51.960;8.372;2023-09-30T07:05:14;101522.00;;;14.70
20289;BMP180;10303;51.960;8.372;2023-09-30T07:07:42;101517.00;;;14.80
20289;BMP180;10303;51.960;8.372;2023-09-30T07:10:11;101517.00;;;14.80
20289;BMP180;10303;51.960;8.372;2023-09-30T07:12:37;101519.00;;;14.90
20289;BMP180;10303;51.960;8.372;2023-09-30T07:15:05;101534.00;;;14.90
20289;BMP180;10303;51.960;8.372;2023-09-30T07:17:32;101542.00;;;15.00
20289;BMP180;10303;51.960;8.372;2023-09-30T07:19:59;101532.00;;;15.00
20289;BMP180;10303;51.960;8.372;2023-09-30T07:22:25;101538.00;;;15.10
20289;BMP180;10303;51.960;8.372;2023-09-30T07:24:51;101540.00;;;15.20
20289;BMP180;10303;51.960;8.372;2023-09-30T07:27:18;101542.00;;;15.30
20289;BMP180;10303;51.960;8.372;2023-09-30T07:29:44;101544.00;;;15.30
20289;BMP180;10303;51.960;8.372;2023-09-30T07:32:10;101547.00;;;15.40
20289;BMP180;10303;51.960;8.372;2023-09-30T07:34:36;101553.00;;;15.50
20289;BMP180;10303;51.960;8.372;2023-09-30T07:37:02;101548.00;;;15.60
20289;BMP180;10303;51.960;8.372;2023-09-30T07:39:29;101546.00;;;15.60
20289;BMP180;10303;51.960;8.372;2023-09-30T07:41:56;101551.00;;;15.70
20289;BMP180;10303;51.960;8.372;2023-09-30T07:44:22;101540.00;;;15.80
20289;BMP180;10303;51.960;8.372;2023-09-30T07:46:48;101549.00;;;15.90
20289;BMP180;10303;51.960;8.372;2023-09-30T07:49:14;101568.00;;;16.00
20289;BMP180;10303;51.960;8.372;2023-09-30T07:51:40;101564.00;;;16.00
20289;BMP180;10303;51.960;8.372;2023-09-30T07:54:06;101573.00;;;16.10
20289;BMP180;10303;51.960;8.372;2023-09-30T07:56:32;101565.00;;;16.20
20289;BMP180;10303;51.960;8.372;2023-09-30T07:58:58;101574.00;;;16.30
20289;BMP180;10303;51.960;8.372;2023-09-30T08:01:24;101570.00;;;16.40
20289;BMP180;10303;51.960;8.372;2023-09-30T08:03:50;101574.00;;;16.50
20289;BMP180;10303;51.960;8.372;2023-09-30T08:06:16;101583.00;;;16.60
20289;BMP180;10303;51.960;8.372;2023-09-30T08:08:42;101581.00;;;16.70
20289;BMP180;10303;51.960;8.372;2023-09-30T08:11:07;101581.00;;;16.70
20289;BMP180;10303;51.960;8.372;2023-09-30T08:13:33;101577.00;;;16.80
20289;BMP180;10303;51.960;8.372;2023-09-30T08:16:00;101579.00;;;16.90
20289;BMP180;10303;51.960;8.372;2023-09-30T08:18:26;101579.00;;;17.00
20289;BMP180;10303;51.960;8.372;2023-09-30T08:20:52;101586.00;;;17.10
20289;BMP180;10303;51.960;8.372;2023-09-30T08:23:18;101588.00;;;17.20
20289;BMP180;10303;51.960;8.372;2023-09-30T08:25:44;101595.00;;;17.20
20289;BMP180;10303;51.960;8.372;2023-09-30T08:28:12;101593.00;;;17.30
20289;BMP180;10303;51.960;8.372;2023-09-30T08:30:38;101588.00;;;17.40
20289;BMP180;10303;51.960;8.372;2023-09-30T08:33:04;101589.00;;;17.50
20289;BMP180;10303;51.960;8.372;2023-09-30T08:35:36;101581.00;;;17.60
20289;BMP180;10303;51.960;8.372;2023-09-30T08:38:03;101591.00;;;17.80
20289;BMP180;10303;51.960;8.372;2023-09-30T08:40:30;101590.00;;;18.00
20289;BMP180;10303;51.960;8.372;2023-09-30T08:42:55;101592.00;;;18.10
20289;BMP180;10303;51.960;8.372;2023-09-30T08:45:24;101598.00;;;18.30
20289;BMP180;10303;51.960;8.372;2023-09-30T08:47:52;101592.00;;;18.50
20289;BMP180;10303;51.960;8.372;2023-09-30T08:50:20;101594.00;;;18.70
20289;BMP180;10303;51.960;8.372;2023-09-30T08:52:48;101594.00;;;18.90
20289;BMP180;10303;51.960;8.372;2023-09-30T08:55:15;101600.00;;;19.20
20289;BMP180;10303;51.960;8.372;2023-09-30T08:57:42;101601.00;;;19.40
20289;BMP180;10303;51.960;8.372;2023-09-30T09:00:11;101603.00;;;19.60
20289;BMP180;10303;51.960;8.372;2023-09-30T09:02:39;101608.00;;;19.90
20289;BMP180;10303;51.960;8.372;2023-09-30T09:05:07;101613.00;;;20.10
20289;BMP180;10303;51.960;8.372;2023-09-30T09:07:35;101607.00;;;20.40
20289;BMP180;10303;51.960;8.372;2023-09-30T09:12:34;101602.00;;;20.70
20289;BMP180;10303;51.960;8.372;2023-09-30T09:15:00;101609.00;;;20.90
20289;BMP180;10303;51.960;8.372;2023-09-30T09:17:44;101612.00;;;21.00
20289;BMP180;10303;51.960;8.372;2023-09-30T09:20:16;101604.00;;;21.10
20289;BMP180;10303;51.960;8.372;2023-09-30T09:22:47;101595.00;;;21.20
20289;BMP180;10303;51.960;8.372;2023-09-30T09:25:13;101603.00;;;21.30
20289;BMP180;10303;51.960;8.372;2023-09-30T09:27:39;101595.00;;;21.50
20289;BMP180;10303;51.960;8.372;2023-09-30T09:30:25;101596.00;;;21.60
20289;BMP180;10303;51.960;8.372;2023-09-30T09:33:02;101609.00;;;21.80
20289;BMP180;10303;51.960;8.372;2023-09-30T09:35:32;101618.00;;;21.90
20289;BMP180;10303;51.960;8.372;2023-09-30T09:38:04;101607.00;;;22.00
20289;BMP180;10303;51.960;8.372;2023-09-30T09:40:33;101613.00;;;22.10
20289;BMP180;10303;51.960;8.372;2023-09-30T09:43:01;101605.00;;;22.10
20289;BMP180;10303;51.960;8.372;2023-09-30T09:45:35;101597.00;;;22.10
20289;BMP180;10303;51.960;8.372;2023-09-30T09:48:03;101600.00;;;22.10
20289;BMP180;10303;51.960;8.372;2023-09-30T09:50:32;101599.00;;;22.00
20289;BMP180;10303;51.960;8.372;2023-09-30T09:52:59;101597.00;;;21.90
20289;BMP180;10303;51.960;8.372;2023-09-30T09:55:27;101595.00;;;22.00
20289;BMP180;10303;51.960;8.372;2023-09-30T09:57:54;101597.00;;;22.00
20289;BMP180;10303;51.960;8.372;2023-09-30T10:00:23;101593.00;;;22.00
20289;BMP180;10303;51.960;8.372;2023-09-30T10:02:50;101580.00;;;22.00
20289;BMP180;10303;51.960;8.372;2023-09-30T10:05:18;101584.00;;;22.10
20289;BMP180;10303;51.960;8.372;2023-09-30T10:10:21;101598.00;;;22.10
20289;BMP180;10303;51.960;8.372;2023-09-30T10:12:48;101590.00;;;22.20
20289;BMP180;10303;51.960;8.372;2023-09-30T10:18:09;101597.00;;;22.30
20289;BMP180;10303;51.960;8.372;2023-09-30T10:20:41;101606.00;;;22.60
20289;BMP180;10303;51.960;8.372;2023-09-30T10:23:27;101602.00;;;22.90
20289;BMP180;10303;51.960;8.372;2023-09-30T10:26:13;101614.00;;;23.10
20289;BMP180;10303;51.960;8.372;2023-09-30T10:28:41;101614.00;;;23.40
20289;BMP180;10303;51.960;8.372;2023-09-30T10:31:18;101613.00;;;23.60
20289;BMP180;10303;51.960;8.372;2023-09-30T10:36:34;101613.00;;;24.20
20289;BMP180;10303;51.960;8.372;2023-09-30T10:39:02;101609.00;;;24.30
20289;BMP180;10303;51.960;8.372;2023-09-30T10:46:57;101590.00;;;25.00
20289;BMP180;10303;51.960;8.372;2023-09-30T10:51:53;101586.00;;;25.40
20289;BMP180;10303;51.960;8.372;2023-09-30T10:54:28;101592.00;;;25.60
20289;BMP180;10303;51.960;8.372;2023-09-30T10:56:55;101595.00;;;25.60
20289;BMP180;10303;51.960;8.372;2023-09-30T10:59:27;101606.00;;;25.40
20289;BMP180;10303;51.960;8.372;2023-09-30T11:01:53;101607.00;;;25.40
20289;BMP180;10303;51.960;8.372;2023-09-30T11:04:20;101612.00;;;25.50
20289;BMP180;10303;51.960;8.372;2023-09-30T11:06:46;101613.00;;;25.50
20289;BMP180;10303;51.960;8.372;2023-09-30T11:09:20;101617.00;;;25.40
20289;BMP180;10303;51.960;8.372;2023-09-30T11:11:49;101614.00;;;25.30
20289;BMP180;10303;51.960;8.372;2023-09-30T11:16:48;101624.00;;;25.00
20289;BMP180;10303;51.960;8.372;2023-09-30T11:19:21;101629.00;;;24.80
20289;BMP180;10303;51.960;8.372;2023-09-30T11:21:50;101613.00;;;24.60
20289;BMP180;10303;51.960;8.372;2023-09-30T11:24:16;101623.00;;;24.30
20289;BMP180;10303;51.960;8.372;2023-09-30T11:26:47;101626.00;;;24.30
20289;BMP180;10303;51.960;8.372;2023-09-30T11:29:16;101608.00;;;24.40
20289;BMP180;10303;51.960;8.372;2023-09-30T11:31:48;101624.00;;;24.60
20289;BMP180;10303;51.960;8.372;2023-09-30T11:34:18;101618.00;;;24.80
20289;BMP180;10303;51.960;8.372;2023-09-30T11:36:50;101613.00;;;24.90
20289;BMP180;10303;51.960;8.372;2023-09-30T11:39:29;101628.00;;;25.00
20289;BMP180;10303;51.960;8.372;2023-09-30T11:41:56;101608.00;;;25.10
20289;BMP180;10303;51.960;8.372;2023-09-30T11:44:26;101609.00;;;25.20
20289;BMP180;10303;51.960;8.372;2023-09-30T11:46:55;101604.00;;;25.30
20289;BMP180;10303;51.960;8.372;2023-09-30T11:52:09;101589.00;;;25.60
20289;BMP180;10303;51.960;8.372;2023-09-30T11:54:44;101595.00;;;25.80
20289;BMP180;10303;51.960;8.372;2023-09-30T11:57:15;101583.00;;;25.80
20289;BMP180;10303;51.960;8.372;2023-09-30T11:59:44;101590.00;;;25.80
20289;BMP180;10303;51.960;8.372;2023-09-30T12:02:15;101587.00;;;25.90
20289;BMP180;10303;51.960;8.372;2023-09-30T12:04:45;101595.00;;;26.00
20289;BMP180;10303;51.960;8.372;2023-09-30T12:07:11;101586.00;;;26.10
20289;BMP180;10303;51.960;8.372;2023-09-30T12:09:38;101578.00;;;26.20
20289;BMP180;10303;51.960;8.372;2023-09-30T12:12:10;101577.00;;;26.30
20289;BMP180;10303;51.960;8.372;2023-09-30T12:14:36;101583.00;;;26.40
20289;BMP180;10303;51.960;8.372;2023-09-30T12:17:03;101580.00;;;26.40
20289;BMP180;10303;51.960;8.372;2023-09-30T12:19:29;101587.00;;;26.30
20289;BMP180;10303;51.960;8.372;2023-09-30T12:21:55;101573.00;;;26.20
20289;BMP180;10303;51.960;8.372;2023-09-30T12:24:21;101571.00;;;26.10
20289;BMP180;10303;51.960;8.372;2023-09-30T12:26:50;101564.00;;;25.90
20289;BMP180;10303;51.960;8.372;2023-09-30T12:29:19;101555.00;;;25.80
20289;BMP180;10303;51.960;8.372;2023-09-30T12:31:46;101549.00;;;25.80
20289;BMP180;10303;51.960;8.372;2023-09-30T12:34:15;101545.00;;;25.80
20289;BMP180;10303;51.960;8.372;2023-09-30T12:36:42;101559.00;;;26.00
20289;BMP180;10303;51.960;8.372;2023-09-30T12:39:10;101558.00;;;26.20
20289;BMP180;10303;51.960;8.372;2023-09-30T12:41:41;101557.00;;;26.30
20289;BMP180;10303;51.960;8.372;2023-09-30T12:44:08;101549.00;;;26.40
20289;BMP180;10303;51.960;8.372;2023-09-30T12:46:35;101552.00;;;26.40
20289;BMP180;10303;51.960;8.372;2023-09-30T12:49:03;101557.00;;;26.40
20289;BMP180;10303;51.960;8.372;2023-09-30T12:51:30;101557.00;;;26.30
20289;BMP180;10303;51.960;8.372;2023-09-30T12:53:56;101539.00;;;26.30
20289;BMP180;10303;51.960;8.372;2023-09-30T12:56:24;101549.00;;;26.20
20289;BMP180;10303;51.960;8.372;2023-09-30T12:58:50;101548.00;;;26.10
20289;BMP180;10303;51.960;8.372;2023-09-30T13:01:16;101540.00;;;26.10
20289;BMP180;10303;51.960;8.372;2023-09-30T13:03:47;101542.00;;;26.10
20289;BMP180;10303;51.960;8.372;2023-09-30T13:06:13;101544.00;;;26.00
20289;BMP180;10303;51.960;8.372;2023-09-30T13:08:39;101535.00;;;26.00
20289;BMP180;10303;51.960;8.372;2023-09-30T13:11:05;101533.00;;;25.90
20289;BMP180;10303;51.960;8.372;2023-09-30T13:13:32;101528.00;;;25.80
20289;BMP180;10303;51.960;8.372;2023-09-30T13:16:11;101523.00;;;25.70
20289;BMP180;10303;51.960;8.372;2023-09-30T13:18:37;101532.00;;;25.60
20289;BMP180;10303;51.960;8.372;2023-09-30T13:21:03;101538.00;;;25.50
20289;BMP180;10303;51.960;8.372;2023-09-30T13:23:32;101540.00;;;25.40
20289;BMP180;10303;51.960;8.372;2023-09-30T13:25:58;101533.00;;;25.30
20289;BMP180;10303;51.960;8.372;2023-09-30T13:28:24;101523.00;;;25.20
20289;BMP180;10303;51.960;8.372;2023-09-30T13:30:53;101522.00;;;25.10
20289;BMP180;10303;51.960;8.372;2023-09-30T13:33:19;101512.00;;;25.00
20289;BMP180;10303;51.960;8.372;2023-09-30T13:35:46;101518.00;;;25.00
20289;BMP180;10303;51.960;8.372;2023-09-30T13:38:13;101521.00;;;24.90
20289;BMP180;10303;51.960;8.372;2023-09-30T13:40:39;101521.00;;;24.80
20289;BMP180;10303;51.960;8.372;2023-09-30T13:43:06;101517.00;;;24.80
20289;BMP180;10303;51.960;8.372;2023-09-30T13:45:32;101513.00;;;24.70
20289;BMP180;10303;51.960;8.372;2023-09-30T13:47:58;101517.00;;;24.60
20289;BMP180;10303;51.960;8.372;2023-09-30T13:50:23;101521.00;;;24.50
20289;BMP180;10303;51.960;8.372;2023-09-30T13:52:49;101515.00;;;24.50
20289;BMP180;10303;51.960;8.372;2023-09-30T13:55:17;101524.00;;;24.40
20289;BMP180;10303;51.960;8.372;2023-09-30T13:57:48;101521.00;;;24.30
20289;BMP180;10303;51.960;8.372;2023-09-30T14:00:15;101522.00;;;24.30
20289;BMP180;10303;51.960;8.372;2023-09-30T14:02:42;101505.00;;;24.30
20289;BMP180;10303;51.960;8.372;2023-09-30T14:05:10;101503.00;;;24.30
20289;BMP180;10303;51.960;8.372;2023-09-30T14:07:36;101512.00;;;24.20
20289;BMP180;10303;51.960;8.372;2023-09-30T14:10:03;101504.00;;;24.20
20289;BMP180;10303;51.960;8.372;2023-09-30T14:12:30;101498.00;;;24.20
20289;BMP180;10303;51.960;8.372;2023-09-30T14:14:57;101481.00;;;24.20
20289;BMP180;10303;51.960;8.372;2023-09-30T14:17:23;101480.00;;;24.20
20289;BMP180;10303;51.960;8.372;2023-09-30T14:19:49;101482.00;;;24.20
20289;BMP180;10303;51.960;8.372;2023-09-30T14:22:15;101469.00;;;24.20
20289;BMP180;10303;51.960;8.372;2023-09-30T14:24:41;101477.00;;;24.20